Mount Zion, Georgia
Current Conditions -  °F | °C
As of 3:35 PM on Saturday 25 Oct 2014 (Local Time) from KCTJ Reporting Station
Clear Clear  
Wind Chill: 73°   Ceiling: Unl
Heat Index: 73°   Visibility: 10mi
Dew Point: 43°   Wind: 9mph
Humidity: 33%   Direction: 350°N
Pressure: 30.04"   Gusts: NA
Location:  33.63°N, 85.19°W
Report Text: KCTJ 251935Z AUTO 35008KT 10SM CLR 23/06 A3004 RMK AO2
Loading
Personal Weather Stations






























Interactive Weather Map
Tropical Storm Tracking
New forecast layout! Learn more

10-Day Weather Forecast

Advertisements
Track Severe Weather on mobile